sensor_id;sensor_type;location;lat;lon;timestamp;temperature;humidity
51029;DHT22;37054;52.054;8.600;2022-11-23T00:01:14;13.50;54.00
51029;DHT22;37054;52.054;8.600;2022-11-23T00:03:40;13.50;54.00
51029;DHT22;37054;52.054;8.600;2022-11-23T00:06:05;13.50;53.90
51029;DHT22;37054;52.054;8.600;2022-11-23T00:08:31;13.50;53.90
51029;DHT22;37054;52.054;8.600;2022-11-23T00:10:57;13.50;53.90
51029;DHT22;37054;52.054;8.600;2022-11-23T00:13:23;13.50;53.90
51029;DHT22;37054;52.054;8.600;2022-11-23T00:15:48;13.60;54.00
51029;DHT22;37054;52.054;8.600;2022-11-23T00:18:14;13.50;53.80
51029;DHT22;37054;52.054;8.600;2022-11-23T00:20:39;13.60;53.90
51029;DHT22;37054;52.054;8.600;2022-11-23T00:23:05;13.70;53.70
51029;DHT22;37054;52.054;8.600;2022-11-23T00:25:30;13.70;53.60
51029;DHT22;37054;52.054;8.600;2022-11-23T00:27:56;13.80;53.50
51029;DHT22;37054;52.054;8.600;2022-11-23T00:30:21;13.70;53.30
51029;DHT22;37054;52.054;8.600;2022-11-23T00:32:47;13.80;53.20
51029;DHT22;37054;52.054;8.600;2022-11-23T00:35:12;13.80;53.60
51029;DHT22;37054;52.054;8.600;2022-11-23T00:37:38;13.80;53.70
51029;DHT22;37054;52.054;8.600;2022-11-23T00:40:04;13.70;54.40
51029;DHT22;37054;52.054;8.600;2022-11-23T00:42:29;13.60;54.90
51029;DHT22;37054;52.054;8.600;2022-11-23T00:44:55;13.50;55.20
51029;DHT22;37054;52.054;8.600;2022-11-23T00:47:20;13.50;55.60
51029;DHT22;37054;52.054;8.600;2022-11-23T00:49:46;13.40;55.70
51029;DHT22;37054;52.054;8.600;2022-11-23T00:52:11;13.40;55.90
51029;DHT22;37054;52.054;8.600;2022-11-23T00:54:37;13.40;56.00
51029;DHT22;37054;52.054;8.600;2022-11-23T00:57:02;13.40;56.20
51029;DHT22;37054;52.054;8.600;2022-11-23T00:59:28;13.40;56.50
51029;DHT22;37054;52.054;8.600;2022-11-23T01:01:53;13.30;57.00
51029;DHT22;37054;52.054;8.600;2022-11-23T01:04:19;13.30;57.40
51029;DHT22;37054;52.054;8.600;2022-11-23T01:06:44;13.30;57.70
51029;DHT22;37054;52.054;8.600;2022-11-23T01:09:14;13.30;58.10
51029;DHT22;37054;52.054;8.600;2022-11-23T01:11:42;13.30;58.20
51029;DHT22;37054;52.054;8.600;2022-11-23T01:14:07;13.30;58.50
51029;DHT22;37054;52.054;8.600;2022-11-23T01:16:34;13.30;58.70
51029;DHT22;37054;52.054;8.600;2022-11-23T01:19:01;13.30;58.90
51029;DHT22;37054;52.054;8.600;2022-11-23T01:21:27;13.30;59.20
51029;DHT22;37054;52.054;8.600;2022-11-23T01:23:56;13.30;59.30
51029;DHT22;37054;52.054;8.600;2022-11-23T01:26:22;13.30;59.50
51029;DHT22;37054;52.054;8.600;2022-11-23T01:28:48;13.20;59.60
51029;DHT22;37054;52.054;8.600;2022-11-23T01:31:18;13.30;59.80
51029;DHT22;37054;52.054;8.600;2022-11-23T01:33:44;13.30;60.10
51029;DHT22;37054;52.054;8.600;2022-11-23T01:36:10;13.30;60.30
51029;DHT22;37054;52.054;8.600;2022-11-23T01:38:36;13.20;60.40
51029;DHT22;37054;52.054;8.600;2022-11-23T01:41:03;13.20;60.30
51029;DHT22;37054;52.054;8.600;2022-11-23T01:43:28;13.20;60.60
51029;DHT22;37054;52.054;8.600;2022-11-23T01:45:56;13.20;60.60
51029;DHT22;37054;52.054;8.600;2022-11-23T01:48:26;13.20;60.60
51029;DHT22;37054;52.054;8.600;2022-11-23T01:50:52;13.30;60.90
51029;DHT22;37054;52.054;8.600;2022-11-23T01:53:18;13.30;60.70
51029;DHT22;37054;52.054;8.600;2022-11-23T01:55:45;13.30;60.70
51029;DHT22;37054;52.054;8.600;2022-11-23T01:58:11;13.40;60.80
51029;DHT22;37054;52.054;8.600;2022-11-23T02:00:37;13.50;60.80
51029;DHT22;37054;52.054;8.600;2022-11-23T02:03:03;13.50;60.40
51029;DHT22;37054;52.054;8.600;2022-11-23T02:05:31;13.50;60.50
51029;DHT22;37054;52.054;8.600;2022-11-23T02:07:58;13.60;60.40
51029;DHT22;37054;52.054;8.600;2022-11-23T02:10:24;13.60;60.10
51029;DHT22;37054;52.054;8.600;2022-11-23T02:12:50;13.70;59.90
51029;DHT22;37054;52.054;8.600;2022-11-23T02:15:16;13.70;59.90
51029;DHT22;37054;52.054;8.600;2022-11-23T02:17:42;13.70;59.70
51029;DHT22;37054;52.054;8.600;2022-11-23T02:20:09;13.70;59.60
51029;DHT22;37054;52.054;8.600;2022-11-23T02:26:03;13.80;59.80
51029;DHT22;37054;52.054;8.600;2022-11-23T02:28:02;13.80;59.50
51029;DHT22;37054;52.054;8.600;2022-11-23T02:30:28;13.80;59.70
51029;DHT22;37054;52.054;8.600;2022-11-23T02:32:55;13.90;59.40
51029;DHT22;37054;52.054;8.600;2022-11-23T02:35:20;13.90;59.20
51029;DHT22;37054;52.054;8.600;2022-11-23T02:37:46;13.90;59.20
51029;DHT22;37054;52.054;8.600;2022-11-23T02:40:16;14.00;58.90
51029;DHT22;37054;52.054;8.600;2022-11-23T02:42:45;14.00;59.00
51029;DHT22;37054;52.054;8.600;2022-11-23T02:45:15;14.00;59.20
51029;DHT22;37054;52.054;8.600;2022-11-23T02:47:43;14.00;59.10
51029;DHT22;37054;52.054;8.600;2022-11-23T02:50:08;14.00;58.80
51029;DHT22;37054;52.054;8.600;2022-11-23T02:52:34;14.00;58.70
51029;DHT22;37054;52.054;8.600;2022-11-23T02:54:59;14.00;58.60
51029;DHT22;37054;52.054;8.600;2022-11-23T02:57:25;14.10;58.70
51029;DHT22;37054;52.054;8.600;2022-11-23T02:59:50;14.20;58.70
51029;DHT22;37054;52.054;8.600;2022-11-23T03:02:16;14.20;58.80
51029;DHT22;37054;52.054;8.600;2022-11-23T03:04:41;14.20;58.70
51029;DHT22;37054;52.054;8.600;2022-11-23T03:07:07;14.20;58.30
51029;DHT22;37054;52.054;8.600;2022-11-23T03:09:32;14.20;58.70
51029;DHT22;37054;52.054;8.600;2022-11-23T03:11:58;14.20;58.80
51029;DHT22;37054;52.054;8.600;2022-11-23T03:14:23;14.30;58.70
51029;DHT22;37054;52.054;8.600;2022-11-23T03:16:50;14.20;58.80
51029;DHT22;37054;52.054;8.600;2022-11-23T03:19:15;14.10;58.80
51029;DHT22;37054;52.054;8.600;2022-11-23T03:21:43;14.10;58.90
51029;DHT22;37054;52.054;8.600;2022-11-23T03:24:09;14.00;59.10
51029;DHT22;37054;52.054;8.600;2022-11-23T03:26:34;14.00;58.90
51029;DHT22;37054;52.054;8.600;2022-11-23T03:29:00;14.00;59.40
51029;DHT22;37054;52.054;8.600;2022-11-23T03:31:25;14.00;59.50
51029;DHT22;37054;52.054;8.600;2022-11-23T03:33:51;14.00;59.50
51029;DHT22;37054;52.054;8.600;2022-11-23T03:36:17;14.00;59.90
51029;DHT22;37054;52.054;8.600;2022-11-23T03:38:42;14.10;59.50
51029;DHT22;37054;52.054;8.600;2022-11-23T03:41:07;14.10;59.60
51029;DHT22;37054;52.054;8.600;2022-11-23T03:43:33;14.20;59.70
51029;DHT22;37054;52.054;8.600;2022-11-23T03:45:59;14.10;59.40
51029;DHT22;37054;52.054;8.600;2022-11-23T03:48:24;14.20;59.30
51029;DHT22;37054;52.054;8.600;2022-11-23T03:50:50;14.00;59.70
51029;DHT22;37054;52.054;8.600;2022-11-23T03:53:17;13.90;60.10
51029;DHT22;37054;52.054;8.600;2022-11-23T03:55:44;13.80;60.40
51029;DHT22;37054;52.054;8.600;2022-11-23T03:58:09;13.70;60.80
51029;DHT22;37054;52.054;8.600;2022-11-23T04:00:35;13.70;61.20
51029;DHT22;37054;52.054;8.600;2022-11-23T04:03:01;13.60;61.50
51029;DHT22;37054;52.054;8.600;2022-11-23T04:05:26;13.60;61.60
51029;DHT22;37054;52.054;8.600;2022-11-23T04:07:52;13.50;61.70
51029;DHT22;37054;52.054;8.600;2022-11-23T04:10:18;13.50;61.80
51029;DHT22;37054;52.054;8.600;2022-11-23T04:12:43;13.50;61.90
51029;DHT22;37054;52.054;8.600;2022-11-23T04:15:09;13.50;62.10
51029;DHT22;37054;52.054;8.600;2022-11-23T04:17:35;13.50;62.20
51029;DHT22;37054;52.054;8.600;2022-11-23T04:20:00;13.50;62.30
51029;DHT22;37054;52.054;8.600;2022-11-23T04:22:26;13.50;62.50
51029;DHT22;37054;52.054;8.600;2022-11-23T04:24:51;13.40;62.50
51029;DHT22;37054;52.054;8.600;2022-11-23T04:27:17;13.50;62.40
51029;DHT22;37054;52.054;8.600;2022-11-23T04:29:42;13.40;62.50
51029;DHT22;37054;52.054;8.600;2022-11-23T04:32:08;13.50;62.50
51029;DHT22;37054;52.054;8.600;2022-11-23T04:34:33;13.50;62.40
51029;DHT22;37054;52.054;8.600;2022-11-23T04:36:59;13.50;62.40
51029;DHT22;37054;52.054;8.600;2022-11-23T04:39:24;13.60;62.40
51029;DHT22;37054;52.054;8.600;2022-11-23T04:41:50;13.50;62.60
51029;DHT22;37054;52.054;8.600;2022-11-23T04:44:15;13.50;62.50
51029;DHT22;37054;52.054;8.600;2022-11-23T04:46:41;13.60;62.30
51029;DHT22;37054;52.054;8.600;2022-11-23T04:49:07;13.50;62.30
51029;DHT22;37054;52.054;8.600;2022-11-23T04:51:33;13.50;62.30
51029;DHT22;37054;52.054;8.600;2022-11-23T04:53:59;13.50;62.00
51029;DHT22;37054;52.054;8.600;2022-11-23T04:56:24;13.30;61.80
51029;DHT22;37054;52.054;8.600;2022-11-23T04:58:49;13.30;61.80
51029;DHT22;37054;52.054;8.600;2022-11-23T05:01:15;13.20;61.90
51029;DHT22;37054;52.054;8.600;2022-11-23T05:03:41;13.20;62.10
51029;DHT22;37054;52.054;8.600;2022-11-23T05:06:08;13.10;62.50
51029;DHT22;37054;52.054;8.600;2022-11-23T05:08:33;13.10;62.30
51029;DHT22;37054;52.054;8.600;2022-11-23T05:10:59;13.10;62.30
51029;DHT22;37054;52.054;8.600;2022-11-23T05:13:24;13.10;62.30
51029;DHT22;37054;52.054;8.600;2022-11-23T05:15:50;13.00;62.30
51029;DHT22;37054;52.054;8.600;2022-11-23T05:18:15;13.00;62.30
51029;DHT22;37054;52.054;8.600;2022-11-23T05:20:41;13.00;62.30
51029;DHT22;37054;52.054;8.600;2022-11-23T05:23:07;13.00;62.30
51029;DHT22;37054;52.054;8.600;2022-11-23T05:25:32;12.90;62.10
51029;DHT22;37054;52.054;8.600;2022-11-23T05:27:58;12.80;62.00
51029;DHT22;37054;52.054;8.600;2022-11-23T05:30:24;12.80;62.20
51029;DHT22;37054;52.054;8.600;2022-11-23T05:32:49;12.80;62.30
51029;DHT22;37054;52.054;8.600;2022-11-23T05:35:15;12.80;62.40
51029;DHT22;37054;52.054;8.600;2022-11-23T05:37:41;12.80;62.40
51029;DHT22;37054;52.054;8.600;2022-11-23T05:40:07;12.80;62.40
51029;DHT22;37054;52.054;8.600;2022-11-23T05:42:32;12.80;62.40
51029;DHT22;37054;52.054;8.600;2022-11-23T05:44:58;12.90;62.50
51029;DHT22;37054;52.054;8.600;2022-11-23T05:47:24;12.90;62.80
51029;DHT22;37054;52.054;8.600;2022-11-23T05:49:49;12.90;62.80
51029;DHT22;37054;52.054;8.600;2022-11-23T05:52:15;13.00;63.00
51029;DHT22;37054;52.054;8.600;2022-11-23T05:54:41;13.10;63.20
51029;DHT22;37054;52.054;8.600;2022-11-23T05:57:06;13.20;63.20
51029;DHT22;37054;52.054;8.600;2022-11-23T05:59:32;13.30;63.00
51029;DHT22;37054;52.054;8.600;2022-11-23T06:01:57;13.30;62.90
51029;DHT22;37054;52.054;8.600;2022-11-23T06:04:23;13.30;62.80
51029;DHT22;37054;52.054;8.600;2022-11-23T06:06:48;13.50;62.80
51029;DHT22;37054;52.054;8.600;2022-11-23T06:09:14;13.50;62.80
51029;DHT22;37054;52.054;8.600;2022-11-23T06:11:39;13.50;62.70
51029;DHT22;37054;52.054;8.600;2022-11-23T06:14:05;13.50;62.60
51029;DHT22;37054;52.054;8.600;2022-11-23T06:16:30;13.50;62.60
51029;DHT22;37054;52.054;8.600;2022-11-23T06:18:56;13.50;62.70
51029;DHT22;37054;52.054;8.600;2022-11-23T06:21:21;13.40;62.80
51029;DHT22;37054;52.054;8.600;2022-11-23T06:23:47;13.50;62.90
51029;DHT22;37054;52.054;8.600;2022-11-23T06:26:13;13.50;62.90
51029;DHT22;37054;52.054;8.600;2022-11-23T06:28:44;13.50;62.90
51029;DHT22;37054;52.054;8.600;2022-11-23T06:31:10;13.50;63.00
51029;DHT22;37054;52.054;8.600;2022-11-23T06:33:35;13.50;63.10
51029;DHT22;37054;52.054;8.600;2022-11-23T06:36:01;13.50;63.00
51029;DHT22;37054;52.054;8.600;2022-11-23T06:38:27;13.40;63.10
51029;DHT22;37054;52.054;8.600;2022-11-23T06:40:59;13.40;63.10
51029;DHT22;37054;52.054;8.600;2022-11-23T06:43:26;13.40;63.20
51029;DHT22;37054;52.054;8.600;2022-11-23T06:45:52;13.40;63.20
51029;DHT22;37054;52.054;8.600;2022-11-23T06:48:17;13.50;63.30
51029;DHT22;37054;52.054;8.600;2022-11-23T06:50:43;13.50;63.30
51029;DHT22;37054;52.054;8.600;2022-11-23T06:53:08;13.50;63.20
51029;DHT22;37054;52.054;8.600;2022-11-23T06:55:36;13.50;63.20
51029;DHT22;37054;52.054;8.600;2022-11-23T06:58:02;13.50;63.20
51029;DHT22;37054;52.054;8.600;2022-11-23T07:00:27;13.50;63.20
51029;DHT22;37054;52.054;8.600;2022-11-23T07:02:53;13.50;63.30
51029;DHT22;37054;52.054;8.600;2022-11-23T07:05:19;13.50;63.30
51029;DHT22;37054;52.054;8.600;2022-11-23T07:07:45;13.50;63.40
51029;DHT22;37054;52.054;8.600;2022-11-23T07:10:10;13.50;63.40
51029;DHT22;37054;52.054;8.600;2022-11-23T07:12:36;13.50;63.50
51029;DHT22;37054;52.054;8.600;2022-11-23T07:15:05;13.50;63.30
51029;DHT22;37054;52.054;8.600;2022-11-23T07:17:31;13.50;63.40
51029;DHT22;37054;52.054;8.600;2022-11-23T07:19:56;13.60;63.30
51029;DHT22;37054;52.054;8.600;2022-11-23T07:22:22;13.70;63.40
51029;DHT22;37054;52.054;8.600;2022-11-23T07:24:48;13.70;63.20
51029;DHT22;37054;52.054;8.600;2022-11-23T07:27:15;13.70;63.20
51029;DHT22;37054;52.054;8.600;2022-11-23T07:29:41;13.70;63.10
51029;DHT22;37054;52.054;8.600;2022-11-23T07:32:06;13.80;63.00
51029;DHT22;37054;52.054;8.600;2022-11-23T07:34:32;13.80;63.20
51029;DHT22;37054;52.054;8.600;2022-11-23T07:36:58;13.80;63.00
51029;DHT22;37054;52.054;8.600;2022-11-23T07:39:23;13.90;63.00
51029;DHT22;37054;52.054;8.600;2022-11-23T07:41:49;13.90;63.10
51029;DHT22;37054;52.054;8.600;2022-11-23T07:44:15;13.90;62.90
51029;DHT22;37054;52.054;8.600;2022-11-23T07:46:40;14.00;63.00
51029;DHT22;37054;52.054;8.600;2022-11-23T07:49:06;14.00;62.90
51029;DHT22;37054;52.054;8.600;2022-11-23T07:51:31;14.00;62.90
51029;DHT22;37054;52.054;8.600;2022-11-23T07:53:58;14.10;62.90
51029;DHT22;37054;52.054;8.600;2022-11-23T07:56:23;14.10;62.90
51029;DHT22;37054;52.054;8.600;2022-11-23T07:58:55;14.20;63.10
51029;DHT22;37054;52.054;8.600;2022-11-23T08:01:20;14.20;63.00
51029;DHT22;37054;52.054;8.600;2022-11-23T08:03:46;14.20;63.10
51029;DHT22;37054;52.054;8.600;2022-11-23T08:06:13;14.30;63.00
51029;DHT22;37054;52.054;8.600;2022-11-23T08:08:38;14.30;62.90
51029;DHT22;37054;52.054;8.600;2022-11-23T08:11:04;14.40;62.60
51029;DHT22;37054;52.054;8.600;2022-11-23T08:13:30;14.40;62.50
51029;DHT22;37054;52.054;8.600;2022-11-23T08:15:56;14.40;62.60
51029;DHT22;37054;52.054;8.600;2022-11-23T08:18:24;14.40;62.50
51029;DHT22;37054;52.054;8.600;2022-11-23T08:20:50;14.50;62.50
51029;DHT22;37054;52.054;8.600;2022-11-23T08:23:16;14.50;62.40
51029;DHT22;37054;52.054;8.600;2022-11-23T08:25:42;14.50;62.40
51029;DHT22;37054;52.054;8.600;2022-11-23T08:28:07;14.60;62.50
51029;DHT22;37054;52.054;8.600;2022-11-23T08:30:33;14.70;62.30
51029;DHT22;37054;52.054;8.600;2022-11-23T08:33:02;14.70;62.20
51029;DHT22;37054;52.054;8.600;2022-11-23T08:35:28;14.80;62.20
51029;DHT22;37054;52.054;8.600;2022-11-23T08:37:57;14.80;61.90
51029;DHT22;37054;52.054;8.600;2022-11-23T08:40:22;14.90;62.20
51029;DHT22;37054;52.054;8.600;2022-11-23T08:42:48;14.90;62.10
51029;DHT22;37054;52.054;8.600;2022-11-23T08:45:13;15.10;61.90
51029;DHT22;37054;52.054;8.600;2022-11-23T08:47:39;15.20;62.10
51029;DHT22;37054;52.054;8.600;2022-11-23T08:50:05;15.40;62.30
51029;DHT22;37054;52.054;8.600;2022-11-23T08:52:31;15.50;61.70
51029;DHT22;37054;52.054;8.600;2022-11-23T08:54:57;15.50;61.70
51029;DHT22;37054;52.054;8.600;2022-11-23T08:57:23;15.50;61.00
51029;DHT22;37054;52.054;8.600;2022-11-23T08:59:48;15.60;60.90
51029;DHT22;37054;52.054;8.600;2022-11-23T09:02:14;15.50;61.10
51029;DHT22;37054;52.054;8.600;2022-11-23T09:04:40;15.60;60.50
51029;DHT22;37054;52.054;8.600;2022-11-23T09:07:05;15.50;60.70
51029;DHT22;37054;52.054;8.600;2022-11-23T09:09:31;15.50;60.60
51029;DHT22;37054;52.054;8.600;2022-11-23T09:11:56;15.40;60.90
51029;DHT22;37054;52.054;8.600;2022-11-23T09:14:22;15.30;60.50
51029;DHT22;37054;52.054;8.600;2022-11-23T09:16:48;15.30;60.80
51029;DHT22;37054;52.054;8.600;2022-11-23T09:19:13;15.30;60.90
51029;DHT22;37054;52.054;8.600;2022-11-23T09:21:39;15.30;61.30
51029;DHT22;37054;52.054;8.600;2022-11-23T09:24:08;15.40;61.90
51029;DHT22;37054;52.054;8.600;2022-11-23T09:26:34;15.70;63.30
51029;DHT22;37054;52.054;8.600;2022-11-23T09:29:02;16.10;63.50
51029;DHT22;37054;52.054;8.600;2022-11-23T09:31:27;16.30;62.90
51029;DHT22;37054;52.054;8.600;2022-11-23T09:33:53;16.40;62.20
51029;DHT22;37054;52.054;8.600;2022-11-23T09:36:19;16.50;62.00
51029;DHT22;37054;52.054;8.600;2022-11-23T09:38:47;16.60;61.80
51029;DHT22;37054;52.054;8.600;2022-11-23T09:44:04;16.70;61.50
51029;DHT22;37054;52.054;8.600;2022-11-23T09:49:17;16.50;59.70
51029;DHT22;37054;52.054;8.600;2022-11-23T09:51:44;16.40;60.30
51029;DHT22;37054;52.054;8.600;2022-11-23T09:54:24;16.30;60.10
51029;DHT22;37054;52.054;8.600;2022-11-23T09:56:51;16.30;60.50
51029;DHT22;37054;52.054;8.600;2022-11-23T10:01:46;16.50;60.60
51029;DHT22;37054;52.054;8.600;2022-11-23T10:04:14;16.60;61.00
51029;DHT22;37054;52.054;8.600;2022-11-23T10:06:41;16.80;61.20
51029;DHT22;37054;52.054;8.600;2022-11-23T10:11:45;17.10;61.20
51029;DHT22;37054;52.054;8.600;2022-11-23T10:16:56;17.40;61.40
51029;DHT22;37054;52.054;8.600;2022-11-23T10:19:28;17.70;60.80
51029;DHT22;37054;52.054;8.600;2022-11-23T10:24:27;17.90;59.40
51029;DHT22;37054;52.054;8.600;2022-11-23T10:26:55;18.00;58.50
51029;DHT22;37054;52.054;8.600;2022-11-23T10:29:29;18.10;58.30
51029;DHT22;37054;52.054;8.600;2022-11-23T10:31:57;18.20;59.00
51029;DHT22;37054;52.054;8.600;2022-11-23T10:36:57;18.40;56.20
51029;DHT22;37054;52.054;8.600;2022-11-23T10:39:25;18.70;58.40
51029;DHT22;37054;52.054;8.600;2022-11-23T10:41:50;19.00;59.00
51029;DHT22;37054;52.054;8.600;2022-11-23T10:46:42;19.70;58.60
51029;DHT22;37054;52.054;8.600;2022-11-23T10:49:11;20.00;58.70
51029;DHT22;37054;52.054;8.600;2022-11-23T10:51:49;20.20;56.70
51029;DHT22;37054;52.054;8.600;2022-11-23T10:54:22;20.20;56.10
51029;DHT22;37054;52.054;8.600;2022-11-23T10:56:49;20.30;56.40
51029;DHT22;37054;52.054;8.600;2022-11-23T10:59:35;20.30;54.70
51029;DHT22;37054;52.054;8.600;2022-11-23T11:02:17;20.20;53.80
51029;DHT22;37054;52.054;8.600;2022-11-23T11:04:43;20.30;54.70
51029;DHT22;37054;52.054;8.600;2022-11-23T11:07:31;20.60;53.00
51029;DHT22;37054;52.054;8.600;2022-11-23T11:09:56;20.80;51.70
51029;DHT22;37054;52.054;8.600;2022-11-23T11:12:23;21.20;51.40
51029;DHT22;37054;52.054;8.600;2022-11-23T11:17:25;21.60;50.40
51029;DHT22;37054;52.054;8.600;2022-11-23T11:19:51;21.60;46.40
51029;DHT22;37054;52.054;8.600;2022-11-23T11:22:24;21.50;44.20
51029;DHT22;37054;52.054;8.600;2022-11-23T11:24:51;21.50;44.10
51029;DHT22;37054;52.054;8.600;2022-11-23T11:27:23;21.40;44.60
51029;DHT22;37054;52.054;8.600;2022-11-23T11:29:51;21.40;44.40
51029;DHT22;37054;52.054;8.600;2022-11-23T11:34:53;21.30;43.00
51029;DHT22;37054;52.054;8.600;2022-11-23T11:37:23;21.30;42.80
51029;DHT22;37054;52.054;8.600;2022-11-23T11:39:53;21.10;40.40
51029;DHT22;37054;52.054;8.600;2022-11-23T11:42:31;21.00;40.90
51029;DHT22;37054;52.054;8.600;2022-11-23T11:44:59;20.80;39.50
51029;DHT22;37054;52.054;8.600;2022-11-23T11:47:31;20.70;40.50
51029;DHT22;37054;52.054;8.600;2022-11-23T11:49:58;20.40;39.20
51029;DHT22;37054;52.054;8.600;2022-11-23T11:52:30;20.30;39.90
51029;DHT22;37054;52.054;8.600;2022-11-23T11:55:03;20.30;41.20
51029;DHT22;37054;52.054;8.600;2022-11-23T11:57:48;20.00;39.70
51029;DHT22;37054;52.054;8.600;2022-11-23T12:00:16;19.60;39.60
51029;DHT22;37054;52.054;8.600;2022-11-23T12:02:48;19.20;40.60
51029;DHT22;37054;52.054;8.600;2022-11-23T12:05:23;19.00;41.40
51029;DHT22;37054;52.054;8.600;2022-11-23T12:10:49;18.60;41.90
51029;DHT22;37054;52.054;8.600;2022-11-23T12:13:14;18.40;41.90
51029;DHT22;37054;52.054;8.600;2022-11-23T12:15:42;18.20;42.00
51029;DHT22;37054;52.054;8.600;2022-11-23T12:18:14;18.10;42.70
51029;DHT22;37054;52.054;8.600;2022-11-23T12:20:58;17.90;42.10
51029;DHT22;37054;52.054;8.600;2022-11-23T12:33:34;17.30;42.30
51029;DHT22;37054;52.054;8.600;2022-11-23T12:59:56;17.20;43.10
51029;DHT22;37054;52.054;8.600;2022-11-23T13:10:25;17.20;43.40
51029;DHT22;37054;52.054;8.600;2022-11-23T13:23:06;17.20;43.90
51029;DHT22;37054;52.054;8.600;2022-11-23T13:25:32;17.20;43.70
51029;DHT22;37054;52.054;8.600;2022-11-23T13:27:59;17.20;42.50
51029;DHT22;37054;52.054;8.600;2022-11-23T13:30:37;17.20;42.20
51029;DHT22;37054;52.054;8.600;2022-11-23T13:35:46;17.00;41.70
51029;DHT22;37054;52.054;8.600;2022-11-23T13:38:25;16.80;41.70
51029;DHT22;37054;52.054;8.600;2022-11-23T13:40:51;16.70;41.50
51029;DHT22;37054;52.054;8.600;2022-11-23T13:43:18;16.70;41.70
51029;DHT22;37054;52.054;8.600;2022-11-23T13:45:46;16.70;42.10
51029;DHT22;37054;52.054;8.600;2022-11-23T13:48:35;16.60;42.40
51029;DHT22;37054;52.054;8.600;2022-11-23T13:51:06;16.50;42.50
51029;DHT22;37054;52.054;8.600;2022-11-23T13:53:36;16.40;42.90
51029;DHT22;37054;52.054;8.600;2022-11-23T14:04:20;16.10;45.10
51029;DHT22;37054;52.054;8.600;2022-11-23T14:07:29;16.00;45.60
51029;DHT22;37054;52.054;8.600;2022-11-23T14:09:38;15.90;46.00
51029;DHT22;37054;52.054;8.600;2022-11-23T14:22:43;15.40;45.30
51029;DHT22;37054;52.054;8.600;2022-11-23T14:27:59;15.30;44.40
51029;DHT22;37054;52.054;8.600;2022-11-23T14:30:30;15.30;44.80
51029;DHT22;37054;52.054;8.600;2022-11-23T14:33:10;15.30;45.10
51029;DHT22;37054;52.054;8.600;2022-11-23T14:36:03;15.30;44.50
51029;DHT22;37054;52.054;8.600;2022-11-23T14:38:37;15.20;44.20
51029;DHT22;37054;52.054;8.600;2022-11-23T14:41:06;15.20;44.50
51029;DHT22;37054;52.054;8.600;2022-11-23T14:43:33;15.20;44.20
51029;DHT22;37054;52.054;8.600;2022-11-23T14:46:00;15.10;44.30
51029;DHT22;37054;52.054;8.600;2022-11-23T14:48:28;15.00;44.50
51029;DHT22;37054;52.054;8.600;2022-11-23T14:50:58;15.10;44.70
51029;DHT22;37054;52.054;8.600;2022-11-23T14:53:28;15.00;44.90
51029;DHT22;37054;52.054;8.600;2022-11-23T14:55:55;14.90;45.30
51029;DHT22;37054;52.054;8.600;2022-11-23T14:58:22;14.90;45.70
51029;DHT22;37054;52.054;8.600;2022-11-23T15:00:49;14.80;46.10
51029;DHT22;37054;52.054;8.600;2022-11-23T15:03:16;14.70;46.50
51029;DHT22;37054;52.054;8.600;2022-11-23T15:05:43;14.60;46.70
51029;DHT22;37054;52.054;8.600;2022-11-23T15:08:12;14.50;47.00
51029;DHT22;37054;52.054;8.600;2022-11-23T15:10:42;14.40;47.20
51029;DHT22;37054;52.054;8.600;2022-11-23T15:13:22;14.30;47.40
51029;DHT22;37054;52.054;8.600;2022-11-23T15:15:49;14.20;47.70
51029;DHT22;37054;52.054;8.600;2022-11-23T15:18:26;14.10;48.00
51029;DHT22;37054;52.054;8.600;2022-11-23T15:20:52;14.00;48.10
51029;DHT22;37054;52.054;8.600;2022-11-23T15:23:22;13.80;48.30
51029;DHT22;37054;52.054;8.600;2022-11-23T15:25:54;13.80;48.50
51029;DHT22;37054;52.054;8.600;2022-11-23T15:28:24;13.70;48.60
51029;DHT22;37054;52.054;8.600;2022-11-23T15:30:50;13.60;48.70
51029;DHT22;37054;52.054;8.600;2022-11-23T15:33:17;13.60;48.80
51029;DHT22;37054;52.054;8.600;2022-11-23T15:35:43;13.50;48.90
51029;DHT22;37054;52.054;8.600;2022-11-23T15:38:11;13.40;49.10
51029;DHT22;37054;52.054;8.600;2022-11-23T15:40:38;13.30;49.20
51029;DHT22;37054;52.054;8.600;2022-11-23T15:43:05;13.20;49.40
51029;DHT22;37054;52.054;8.600;2022-11-23T15:48:17;13.10;49.70
51029;DHT22;37054;52.054;8.600;2022-11-23T15:50:45;13.00;49.90
51029;DHT22;37054;52.054;8.600;2022-11-23T15:53:11;13.00;50.00
51029;DHT22;37054;52.054;8.600;2022-11-23T15:55:37;12.90;50.10
51029;DHT22;37054;52.054;8.600;2022-11-23T15:58:03;12.80;50.20
51029;DHT22;37054;52.054;8.600;2022-11-23T16:00:31;12.80;50.40
51029;DHT22;37054;52.054;8.600;2022-11-23T16:05:41;12.70;50.60
51029;DHT22;37054;52.054;8.600;2022-11-23T16:08:21;12.60;50.90
51029;DHT22;37054;52.054;8.600;2022-11-23T16:10:53;12.60;50.90
51029;DHT22;37054;52.054;8.600;2022-11-23T16:13:35;12.50;51.10
51029;DHT22;37054;52.054;8.600;2022-11-23T16:16:01;12.50;51.30
51029;DHT22;37054;52.054;8.600;2022-11-23T16:18:29;12.40;51.40
51029;DHT22;37054;52.054;8.600;2022-11-23T16:21:00;12.50;51.60
51029;DHT22;37054;52.054;8.600;2022-11-23T16:26:11;12.40;51.70
51029;DHT22;37054;52.054;8.600;2022-11-23T16:28:38;12.30;51.80
51029;DHT22;37054;52.054;8.600;2022-11-23T16:31:05;12.30;51.90
51029;DHT22;37054;52.054;8.600;2022-11-23T16:33:35;12.30;52.00
51029;DHT22;37054;52.054;8.600;2022-11-23T16:36:01;12.30;52.00
51029;DHT22;37054;52.054;8.600;2022-11-23T16:38:26;12.20;52.00
51029;DHT22;37054;52.054;8.600;2022-11-23T16:40:52;12.30;52.10
51029;DHT22;37054;52.054;8.600;2022-11-23T16:43:18;12.20;52.10
51029;DHT22;37054;52.054;8.600;2022-11-23T16:45:44;12.20;52.30
51029;DHT22;37054;52.054;8.600;2022-11-23T16:50:51;12.10;52.30
51029;DHT22;37054;52.054;8.600;2022-11-23T16:53:17;12.10;52.40
51029;DHT22;37054;52.054;8.600;2022-11-23T16:55:44;12.10;52.50
51029;DHT22;37054;52.054;8.600;2022-11-23T16:58:11;12.00;52.50
51029;DHT22;37054;52.054;8.600;2022-11-23T17:00:37;12.00;52.50
51029;DHT22;37054;52.054;8.600;2022-11-23T17:03:03;12.00;52.50
51029;DHT22;37054;52.054;8.600;2022-11-23T17:05:30;12.00;52.70
51029;DHT22;37054;52.054;8.600;2022-11-23T17:07:55;12.00;52.60
51029;DHT22;37054;52.054;8.600;2022-11-23T17:10:21;12.00;52.60
51029;DHT22;37054;52.054;8.600;2022-11-23T17:12:50;12.00;52.70
51029;DHT22;37054;52.054;8.600;2022-11-23T17:15:16;11.90;52.80
51029;DHT22;37054;52.054;8.600;2022-11-23T17:17:43;12.00;52.80
51029;DHT22;37054;52.054;8.600;2022-11-23T17:20:12;12.00;52.80
51029;DHT22;37054;52.054;8.600;2022-11-23T17:22:38;11.90;52.80
51029;DHT22;37054;52.054;8.600;2022-11-23T17:25:04;11.90;52.80
51029;DHT22;37054;52.054;8.600;2022-11-23T17:27:30;12.00;53.00
51029;DHT22;37054;52.054;8.600;2022-11-23T17:29:57;12.10;53.00